sensor_id;sensor_type;location;lat;lon;timestamp;pressure;altitude;pressure_sealevel;temperature;humidity
20350;BME280;10332;50.208;18.988;2023-07-02T00:00:14;97048.91;;;21.42;86.38
20350;BME280;10332;50.208;18.988;2023-07-02T00:03:02;97043.25;;;21.58;85.19
20350;BME280;10332;50.208;18.988;2023-07-02T00:05:30;97054.50;;;21.60;85.01
20350;BME280;10332;50.208;18.988;2023-07-02T00:07:58;97050.19;;;21.59;85.06
20350;BME280;10332;50.208;18.988;2023-07-02T00:10:26;97045.69;;;21.53;84.08
20350;BME280;10332;50.208;18.988;2023-07-02T00:12:53;97044.63;;;21.41;84.83
20350;BME280;10332;50.208;18.988;2023-07-02T00:15:21;97045.66;;;21.46;84.81
20350;BME280;10332;50.208;18.988;2023-07-02T00:17:48;97039.53;;;21.46;84.23
20350;BME280;10332;50.208;18.988;2023-07-02T00:20:16;97045.66;;;21.46;83.90
20350;BME280;10332;50.208;18.988;2023-07-02T00:22:44;97047.66;;;21.31;85.06
20350;BME280;10332;50.208;18.988;2023-07-02T00:25:13;97049.59;;;21.16;85.98
20350;BME280;10332;50.208;18.988;2023-07-02T00:27:41;97048.28;;;21.33;86.24
20350;BME280;10332;50.208;18.988;2023-07-02T00:30:10;97044.69;;;21.19;87.42
20350;BME280;10332;50.208;18.988;2023-07-02T00:32:37;97040.91;;;21.35;87.14
20350;BME280;10332;50.208;18.988;2023-07-02T00:35:05;97047.22;;;21.28;88.21
20350;BME280;10332;50.208;18.988;2023-07-02T00:37:33;97037.63;;;21.27;88.79
20350;BME280;10332;50.208;18.988;2023-07-02T00:40:01;97037.78;;;21.25;89.55
20350;BME280;10332;50.208;18.988;2023-07-02T00:42:29;97038.19;;;21.22;90.13
20350;BME280;10332;50.208;18.988;2023-07-02T00:44:57;97038.56;;;21.19;91.44
20350;BME280;10332;50.208;18.988;2023-07-02T00:47:32;97043.66;;;21.14;92.35
20350;BME280;10332;50.208;18.988;2023-07-02T00:50:02;97035.03;;;21.05;93.24
20350;BME280;10332;50.208;18.988;2023-07-02T00:52:29;97035.25;;;21.10;93.11
20350;BME280;10332;50.208;18.988;2023-07-02T00:54:57;97036.06;;;21.11;93.12
20350;BME280;10332;50.208;18.988;2023-07-02T00:57:26;97041.00;;;21.14;93.15
20350;BME280;10332;50.208;18.988;2023-07-02T00:59:58;97039.16;;;21.14;93.17
20350;BME280;10332;50.208;18.988;2023-07-02T01:02:28;97030.81;;;21.17;93.54
20350;BME280;10332;50.208;18.988;2023-07-02T01:04:57;97038.16;;;21.15;93.10
20350;BME280;10332;50.208;18.988;2023-07-02T01:07:28;97029.56;;;21.13;93.21
20350;BME280;10332;50.208;18.988;2023-07-02T01:09:56;97032.63;;;21.17;93.26
20350;BME280;10332;50.208;18.988;2023-07-02T01:12:23;97030.31;;;21.01;94.00
20350;BME280;10332;50.208;18.988;2023-07-02T01:15:00;97021.88;;;20.90;94.80
20350;BME280;10332;50.208;18.988;2023-07-02T01:17:31;97032.38;;;21.05;94.64
20350;BME280;10332;50.208;18.988;2023-07-02T01:20:10;97024.38;;;20.98;95.26
20350;BME280;10332;50.208;18.988;2023-07-02T01:22:39;97029.06;;;20.96;95.43
20350;BME280;10332;50.208;18.988;2023-07-02T01:25:07;97026.22;;;20.98;95.79
20350;BME280;10332;50.208;18.988;2023-07-02T01:27:37;97031.53;;;20.98;96.08
20350;BME280;10332;50.208;18.988;2023-07-02T01:30:05;97025.97;;;20.93;97.04
20350;BME280;10332;50.208;18.988;2023-07-02T01:32:34;97016.78;;;20.89;97.37
20350;BME280;10332;50.208;18.988;2023-07-02T01:35:02;97024.84;;;20.67;98.55
20350;BME280;10332;50.208;18.988;2023-07-02T01:37:29;97017.66;;;20.61;99.54
20350;BME280;10332;50.208;18.988;2023-07-02T01:40:05;97018.13;;;20.72;99.02
20350;BME280;10332;50.208;18.988;2023-07-02T01:42:33;97013.22;;;20.68;99.23
20350;BME280;10332;50.208;18.988;2023-07-02T01:45:01;97012.53;;;20.60;99.73
20350;BME280;10332;50.208;18.988;2023-07-02T01:47:28;97013.00;;;20.42;100.00
20350;BME280;10332;50.208;18.988;2023-07-02T01:49:56;97005.16;;;20.55;100.00
20350;BME280;10332;50.208;18.988;2023-07-02T01:52:23;97008.19;;;20.31;100.00
20350;BME280;10332;50.208;18.988;2023-07-02T01:54:51;97009.59;;;20.48;99.93
20350;BME280;10332;50.208;18.988;2023-07-02T01:57:19;97007.22;;;20.32;100.00
20350;BME280;10332;50.208;18.988;2023-07-02T01:59:47;97009.75;;;20.19;100.00
20350;BME280;10332;50.208;18.988;2023-07-02T02:02:14;97009.06;;;20.31;100.00
20350;BME280;10332;50.208;18.988;2023-07-02T02:04:43;97005.06;;;20.21;100.00
20350;BME280;10332;50.208;18.988;2023-07-02T02:07:10;97006.19;;;20.33;99.67
20350;BME280;10332;50.208;18.988;2023-07-02T02:09:38;97012.53;;;20.10;100.00
20350;BME280;10332;50.208;18.988;2023-07-02T02:12:06;97004.91;;;20.01;100.00
20350;BME280;10332;50.208;18.988;2023-07-02T02:14:33;97005.31;;;19.98;100.00
20350;BME280;10332;50.208;18.988;2023-07-02T02:17:01;97004.84;;;19.94;100.00
20350;BME280;10332;50.208;18.988;2023-07-02T02:19:29;97004.22;;;19.92;100.00
20350;BME280;10332;50.208;18.988;2023-07-02T02:21:56;96997.91;;;19.93;100.00
20350;BME280;10332;50.208;18.988;2023-07-02T02:24:23;96997.69;;;19.88;99.80
20350;BME280;10332;50.208;18.988;2023-07-02T02:26:51;96994.44;;;19.93;99.98
20350;BME280;10332;50.208;18.988;2023-07-02T02:29:18;96999.16;;;19.76;100.00
20350;BME280;10332;50.208;18.988;2023-07-02T02:31:46;96993.56;;;20.07;98.72
20350;BME280;10332;50.208;18.988;2023-07-02T02:34:13;96993.00;;;19.90;99.79
20350;BME280;10332;50.208;18.988;2023-07-02T02:36:41;97000.31;;;19.88;100.00
20350;BME280;10332;50.208;18.988;2023-07-02T02:39:08;97000.13;;;19.90;100.00
20350;BME280;10332;50.208;18.988;2023-07-02T02:41:36;96997.47;;;19.90;100.00
20350;BME280;10332;50.208;18.988;2023-07-02T02:44:03;97000.94;;;19.90;100.00
20350;BME280;10332;50.208;18.988;2023-07-02T02:46:31;96996.72;;;19.74;100.00
20350;BME280;10332;50.208;18.988;2023-07-02T02:48:58;97000.06;;;19.83;100.00
20350;BME280;10332;50.208;18.988;2023-07-02T02:51:26;96998.69;;;19.87;100.00
20350;BME280;10332;50.208;18.988;2023-07-02T02:53:54;96999.63;;;19.79;100.00
20350;BME280;10332;50.208;18.988;2023-07-02T02:56:21;97001.56;;;19.92;99.90
20350;BME280;10332;50.208;18.988;2023-07-02T02:58:48;96994.25;;;19.73;100.00
20350;BME280;10332;50.208;18.988;2023-07-02T03:01:16;97004.53;;;19.61;100.00
20350;BME280;10332;50.208;18.988;2023-07-02T03:03:43;97003.31;;;19.42;100.00
20350;BME280;10332;50.208;18.988;2023-07-02T03:06:14;96999.38;;;19.74;100.00
20350;BME280;10332;50.208;18.988;2023-07-02T03:08:43;96996.59;;;19.61;100.00
20350;BME280;10332;50.208;18.988;2023-07-02T03:11:10;97010.38;;;19.56;100.00
20350;BME280;10332;50.208;18.988;2023-07-02T03:13:38;97008.63;;;19.64;100.00
20350;BME280;10332;50.208;18.988;2023-07-02T03:16:05;97014.19;;;19.69;100.00
20350;BME280;10332;50.208;18.988;2023-07-02T03:18:34;97010.47;;;19.84;99.59
20350;BME280;10332;50.208;18.988;2023-07-02T03:21:01;97006.50;;;19.95;98.74
20350;BME280;10332;50.208;18.988;2023-07-02T03:23:29;97006.63;;;19.87;98.92
20350;BME280;10332;50.208;18.988;2023-07-02T03:25:56;97013.44;;;19.96;98.14
20350;BME280;10332;50.208;18.988;2023-07-02T03:28:24;97014.06;;;19.98;98.08
20350;BME280;10332;50.208;18.988;2023-07-02T03:30:51;97009.78;;;19.76;98.48
20350;BME280;10332;50.208;18.988;2023-07-02T03:33:19;97011.66;;;19.82;98.52
20350;BME280;10332;50.208;18.988;2023-07-02T03:35:46;97009.41;;;19.79;98.65
20350;BME280;10332;50.208;18.988;2023-07-02T03:38:14;97016.06;;;19.75;99.29
20350;BME280;10332;50.208;18.988;2023-07-02T03:40:42;97013.06;;;19.99;98.29
20350;BME280;10332;50.208;18.988;2023-07-02T03:43:10;97020.91;;;19.86;98.89
20350;BME280;10332;50.208;18.988;2023-07-02T03:45:38;97014.69;;;20.00;98.25
20350;BME280;10332;50.208;18.988;2023-07-02T03:48:05;97022.78;;;20.13;97.35
20350;BME280;10332;50.208;18.988;2023-07-02T03:50:33;97017.84;;;20.10;96.98
20350;BME280;10332;50.208;18.988;2023-07-02T03:53:00;97023.00;;;20.19;96.71
20350;BME280;10332;50.208;18.988;2023-07-02T03:55:28;97027.69;;;20.17;96.78
20350;BME280;10332;50.208;18.988;2023-07-02T03:57:55;97021.94;;;20.13;95.46
20350;BME280;10332;50.208;18.988;2023-07-02T04:00:24;97028.91;;;20.21;95.93
20350;BME280;10332;50.208;18.988;2023-07-02T04:02:52;97029.03;;;20.34;95.42
20350;BME280;10332;50.208;18.988;2023-07-02T04:05:20;97026.63;;;20.39;93.97
20350;BME280;10332;50.208;18.988;2023-07-02T04:07:48;97030.72;;;20.63;93.03
20350;BME280;10332;50.208;18.988;2023-07-02T04:10:15;97031.72;;;20.62;93.04
20350;BME280;10332;50.208;18.988;2023-07-02T04:12:42;97022.00;;;20.76;92.69
20350;BME280;10332;50.208;18.988;2023-07-02T04:15:10;97029.34;;;20.74;92.07
20350;BME280;10332;50.208;18.988;2023-07-02T04:17:38;97029.59;;;20.79;91.82
20350;BME280;10332;50.208;18.988;2023-07-02T04:20:06;97029.44;;;20.87;91.23
20350;BME280;10332;50.208;18.988;2023-07-02T04:22:35;97038.63;;;20.91;91.25
20350;BME280;10332;50.208;18.988;2023-07-02T04:25:02;97035.00;;;20.98;91.12
20350;BME280;10332;50.208;18.988;2023-07-02T04:27:44;97034.88;;;21.13;90.60
20350;BME280;10332;50.208;18.988;2023-07-02T04:30:17;97039.38;;;21.19;90.73
20350;BME280;10332;50.208;18.988;2023-07-02T04:32:45;97043.53;;;21.29;90.31
20350;BME280;10332;50.208;18.988;2023-07-02T04:35:14;97044.00;;;21.39;89.75
20350;BME280;10332;50.208;18.988;2023-07-02T04:37:41;97045.50;;;21.61;88.85
20350;BME280;10332;50.208;18.988;2023-07-02T04:40:09;97050.66;;;21.76;87.41
20350;BME280;10332;50.208;18.988;2023-07-02T04:42:39;97053.13;;;21.84;85.43
20350;BME280;10332;50.208;18.988;2023-07-02T04:45:08;97053.13;;;21.77;85.32
20350;BME280;10332;50.208;18.988;2023-07-02T04:47:36;97057.03;;;21.88;85.07
20350;BME280;10332;50.208;18.988;2023-07-02T04:50:04;97067.88;;;22.00;84.42
20350;BME280;10332;50.208;18.988;2023-07-02T04:52:33;97068.28;;;21.97;83.91
20350;BME280;10332;50.208;18.988;2023-07-02T04:55:02;97071.41;;;22.07;83.49
20350;BME280;10332;50.208;18.988;2023-07-02T04:57:30;97062.19;;;22.16;83.16
20350;BME280;10332;50.208;18.988;2023-07-02T04:59:58;97060.38;;;22.23;83.08
20350;BME280;10332;50.208;18.988;2023-07-02T05:02:25;97057.91;;;22.28;82.61
20350;BME280;10332;50.208;18.988;2023-07-02T05:04:53;97065.28;;;22.33;81.91
20350;BME280;10332;50.208;18.988;2023-07-02T05:07:20;97061.81;;;22.39;82.17
20350;BME280;10332;50.208;18.988;2023-07-02T05:09:49;97070.81;;;22.25;82.53
20350;BME280;10332;50.208;18.988;2023-07-02T05:12:19;97067.13;;;22.39;82.29
20350;BME280;10332;50.208;18.988;2023-07-02T05:14:46;97076.94;;;22.45;82.31
20350;BME280;10332;50.208;18.988;2023-07-02T05:17:14;97078.41;;;22.48;81.91
20350;BME280;10332;50.208;18.988;2023-07-02T05:19:42;97073.25;;;22.53;81.17
20350;BME280;10332;50.208;18.988;2023-07-02T05:22:10;97083.28;;;22.64;80.57
20350;BME280;10332;50.208;18.988;2023-07-02T05:24:37;97082.66;;;22.62;80.79
20350;BME280;10332;50.208;18.988;2023-07-02T05:27:05;97088.81;;;22.76;80.10
20350;BME280;10332;50.208;18.988;2023-07-02T05:29:32;97084.72;;;22.80;79.95
20350;BME280;10332;50.208;18.988;2023-07-02T05:32:00;97089.63;;;22.76;79.28
20350;BME280;10332;50.208;18.988;2023-07-02T05:34:27;97092.09;;;22.71;79.65
20350;BME280;10332;50.208;18.988;2023-07-02T05:36:55;97097.63;;;22.76;79.61
20350;BME280;10332;50.208;18.988;2023-07-02T05:39:22;97104.56;;;22.64;79.63
20350;BME280;10332;50.208;18.988;2023-07-02T05:41:50;97105.19;;;22.53;80.07
20350;BME280;10332;50.208;18.988;2023-07-02T05:44:17;97104.81;;;22.56;80.46
20350;BME280;10332;50.208;18.988;2023-07-02T05:46:45;97111.34;;;22.60;80.19
20350;BME280;10332;50.208;18.988;2023-07-02T05:49:13;97106.63;;;22.62;79.64
20350;BME280;10332;50.208;18.988;2023-07-02T05:51:40;97115.00;;;22.79;79.32
20350;BME280;10332;50.208;18.988;2023-07-02T05:54:08;97113.19;;;22.92;78.93
20350;BME280;10332;50.208;18.988;2023-07-02T05:56:35;97125.44;;;23.00;78.76
20350;BME280;10332;50.208;18.988;2023-07-02T05:59:03;97119.31;;;23.00;78.77
20350;BME280;10332;50.208;18.988;2023-07-02T06:01:30;97124.06;;;22.84;78.87
20350;BME280;10332;50.208;18.988;2023-07-02T06:03:58;97119.09;;;23.14;78.59
20350;BME280;10332;50.208;18.988;2023-07-02T06:06:25;97123.97;;;23.37;77.84
20350;BME280;10332;50.208;18.988;2023-07-02T06:08:53;97125.16;;;23.55;76.57
20350;BME280;10332;50.208;18.988;2023-07-02T06:11:21;97119.31;;;23.77;75.85
20350;BME280;10332;50.208;18.988;2023-07-02T06:13:48;97124.41;;;23.92;75.28
20350;BME280;10332;50.208;18.988;2023-07-02T06:16:16;97114.69;;;24.04;75.28
20350;BME280;10332;50.208;18.988;2023-07-02T06:18:43;97120.19;;;24.10;71.85
20350;BME280;10332;50.208;18.988;2023-07-02T06:21:11;97125.34;;;24.04;72.25
20350;BME280;10332;50.208;18.988;2023-07-02T06:23:43;97131.03;;;23.70;68.90
20350;BME280;10332;50.208;18.988;2023-07-02T06:26:11;97124.69;;;23.71;70.37
20350;BME280;10332;50.208;18.988;2023-07-02T06:28:39;97129.78;;;23.79;68.86
20350;BME280;10332;50.208;18.988;2023-07-02T06:31:07;97130.94;;;23.38;70.36
20350;BME280;10332;50.208;18.988;2023-07-02T06:33:39;97129.25;;;23.50;70.20
20350;BME280;10332;50.208;18.988;2023-07-02T06:36:08;97130.63;;;23.73;69.21
20350;BME280;10332;50.208;18.988;2023-07-02T06:38:39;97128.34;;;23.83;69.19
20350;BME280;10332;50.208;18.988;2023-07-02T06:41:06;97134.84;;;23.94;68.64
20350;BME280;10332;50.208;18.988;2023-07-02T06:43:34;97136.28;;;23.90;68.43
20350;BME280;10332;50.208;18.988;2023-07-02T06:46:01;97139.03;;;24.15;67.43
20350;BME280;10332;50.208;18.988;2023-07-02T06:48:29;97143.53;;;24.21;65.83
20350;BME280;10332;50.208;18.988;2023-07-02T06:50:56;97140.38;;;24.37;64.88
20350;BME280;10332;50.208;18.988;2023-07-02T06:53:24;97148.34;;;24.69;64.39
20350;BME280;10332;50.208;18.988;2023-07-02T06:55:51;97148.94;;;24.96;64.67
20350;BME280;10332;50.208;18.988;2023-07-02T06:58:19;97144.97;;;24.80;63.31
20350;BME280;10332;50.208;18.988;2023-07-02T07:00:47;97148.25;;;24.57;64.10
20350;BME280;10332;50.208;18.988;2023-07-02T07:03:16;97152.09;;;24.36;64.96
20350;BME280;10332;50.208;18.988;2023-07-02T07:05:44;97154.78;;;24.23;65.44
20350;BME280;10332;50.208;18.988;2023-07-02T07:08:11;97159.78;;;23.55;66.72
20350;BME280;10332;50.208;18.988;2023-07-02T07:10:40;97163.16;;;23.04;67.70
20350;BME280;10332;50.208;18.988;2023-07-02T07:13:09;97162.09;;;23.18;68.15
20350;BME280;10332;50.208;18.988;2023-07-02T07:15:38;97167.41;;;23.25;67.84
20350;BME280;10332;50.208;18.988;2023-07-02T07:18:08;97166.34;;;23.52;68.13
20350;BME280;10332;50.208;18.988;2023-07-02T07:20:39;97166.16;;;23.40;69.01
20350;BME280;10332;50.208;18.988;2023-07-02T07:23:09;97167.84;;;23.28;69.25
20350;BME280;10332;50.208;18.988;2023-07-02T07:25:37;97176.44;;;23.17;69.84
20350;BME280;10332;50.208;18.988;2023-07-02T07:28:04;97175.63;;;22.83;69.93
20350;BME280;10332;50.208;18.988;2023-07-02T07:30:32;97181.72;;;22.64;71.05
20350;BME280;10332;50.208;18.988;2023-07-02T07:32:59;97185.66;;;22.75;70.66
20350;BME280;10332;50.208;18.988;2023-07-02T07:35:27;97183.81;;;22.75;70.90
20350;BME280;10332;50.208;18.988;2023-07-02T07:37:54;97188.34;;;22.94;70.74
20350;BME280;10332;50.208;18.988;2023-07-02T07:40:22;97191.41;;;23.05;70.70
20350;BME280;10332;50.208;18.988;2023-07-02T07:42:50;97195.09;;;23.04;71.36
20350;BME280;10332;50.208;18.988;2023-07-02T07:45:19;97205.34;;;23.07;71.42
20350;BME280;10332;50.208;18.988;2023-07-02T07:47:46;97204.94;;;22.97;72.48
20350;BME280;10332;50.208;18.988;2023-07-02T07:50:14;97211.50;;;23.01;71.25
20350;BME280;10332;50.208;18.988;2023-07-02T07:52:42;97211.66;;;23.26;70.70
20350;BME280;10332;50.208;18.988;2023-07-02T07:55:10;97213.72;;;23.37;70.63
20350;BME280;10332;50.208;18.988;2023-07-02T07:57:38;97216.56;;;23.35;70.92
20350;BME280;10332;50.208;18.988;2023-07-02T08:00:06;97218.84;;;23.65;70.47
20350;BME280;10332;50.208;18.988;2023-07-02T08:02:37;97212.38;;;23.92;69.59
20350;BME280;10332;50.208;18.988;2023-07-02T08:05:05;97215.88;;;23.93;70.15
20350;BME280;10332;50.208;18.988;2023-07-02T08:07:33;97215.22;;;24.04;69.32
20350;BME280;10332;50.208;18.988;2023-07-02T08:10:01;97213.50;;;24.16;68.19
20350;BME280;10332;50.208;18.988;2023-07-02T08:12:31;97214.72;;;24.27;67.97
20350;BME280;10332;50.208;18.988;2023-07-02T08:15:00;97216.94;;;23.78;69.03
20350;BME280;10332;50.208;18.988;2023-07-02T08:17:27;97223.13;;;24.17;67.26
20350;BME280;10332;50.208;18.988;2023-07-02T08:19:58;97222.84;;;24.45;66.42
20350;BME280;10332;50.208;18.988;2023-07-02T08:22:27;97229.13;;;24.57;65.09
20350;BME280;10332;50.208;18.988;2023-07-02T08:24:54;97230.22;;;24.43;65.27
20350;BME280;10332;50.208;18.988;2023-07-02T08:27:22;97234.75;;;24.43;65.73
20350;BME280;10332;50.208;18.988;2023-07-02T08:29:50;97236.88;;;24.21;67.37
20350;BME280;10332;50.208;18.988;2023-07-02T08:32:18;97243.63;;;24.30;68.09
20350;BME280;10332;50.208;18.988;2023-07-02T08:34:45;97246.34;;;24.17;68.98
20350;BME280;10332;50.208;18.988;2023-07-02T08:37:13;97252.19;;;23.87;70.22
20350;BME280;10332;50.208;18.988;2023-07-02T08:39:40;97252.22;;;23.54;71.83
20350;BME280;10332;50.208;18.988;2023-07-02T08:42:08;97244.03;;;23.56;72.24
20350;BME280;10332;50.208;18.988;2023-07-02T08:44:36;97244.03;;;23.42;72.85
20350;BME280;10332;50.208;18.988;2023-07-02T08:47:05;97249.78;;;23.33;73.58
20350;BME280;10332;50.208;18.988;2023-07-02T08:49:33;97256.91;;;22.79;74.80
20350;BME280;10332;50.208;18.988;2023-07-02T08:52:01;97256.78;;;23.01;73.96
20350;BME280;10332;50.208;18.988;2023-07-02T08:54:29;97252.25;;;23.14;73.72
20350;BME280;10332;50.208;18.988;2023-07-02T08:56:56;97261.28;;;23.20;73.65
20350;BME280;10332;50.208;18.988;2023-07-02T08:59:24;97251.22;;;23.35;73.25
20350;BME280;10332;50.208;18.988;2023-07-02T09:01:53;97257.78;;;23.39;73.37
20350;BME280;10332;50.208;18.988;2023-07-02T09:04:23;97261.88;;;23.35;73.64
20350;BME280;10332;50.208;18.988;2023-07-02T09:09:32;97261.44;;;23.58;72.98
20350;BME280;10332;50.208;18.988;2023-07-02T09:12:00;97261.06;;;23.48;73.68
20350;BME280;10332;50.208;18.988;2023-07-02T09:14:30;97266.16;;;23.43;73.52
20350;BME280;10332;50.208;18.988;2023-07-02T09:17:06;97262.47;;;23.44;73.53
20350;BME280;10332;50.208;18.988;2023-07-02T09:19:49;97273.34;;;23.42;73.26
20350;BME280;10332;50.208;18.988;2023-07-02T09:22:17;97262.91;;;23.61;72.76
20350;BME280;10332;50.208;18.988;2023-07-02T09:24:58;97261.50;;;24.23;70.82
20350;BME280;10332;50.208;18.988;2023-07-02T09:27:42;97259.28;;;25.28;67.18
20350;BME280;10332;50.208;18.988;2023-07-02T09:30:15;97253.78;;;25.66;66.58
20350;BME280;10332;50.208;18.988;2023-07-02T09:32:45;97252.25;;;26.31;64.49
20350;BME280;10332;50.208;18.988;2023-07-02T09:35:14;97256.13;;;26.96;61.76
20350;BME280;10332;50.208;18.988;2023-07-02T09:37:46;97255.63;;;27.29;60.57
20350;BME280;10332;50.208;18.988;2023-07-02T09:40:14;97256.25;;;27.54;59.07
20350;BME280;10332;50.208;18.988;2023-07-02T09:42:42;97257.16;;;26.83;57.37
20350;BME280;10332;50.208;18.988;2023-07-02T09:45:10;97259.31;;;26.74;58.13
20350;BME280;10332;50.208;18.988;2023-07-02T09:47:44;97254.38;;;27.55;56.56
20350;BME280;10332;50.208;18.988;2023-07-02T09:50:17;97256.09;;;27.37;55.45
20350;BME280;10332;50.208;18.988;2023-07-02T09:52:46;97252.25;;;28.04;54.77
20350;BME280;10332;50.208;18.988;2023-07-02T09:55:15;97252.56;;;28.88;53.25
20350;BME280;10332;50.208;18.988;2023-07-02T09:57:44;97236.41;;;29.33;52.63
20350;BME280;10332;50.208;18.988;2023-07-02T10:00:14;97236.00;;;29.41;51.83
20350;BME280;10332;50.208;18.988;2023-07-02T10:02:41;97245.59;;;29.71;51.01
20350;BME280;10332;50.208;18.988;2023-07-02T10:05:09;97250.00;;;29.09;51.34
20350;BME280;10332;50.208;18.988;2023-07-02T10:07:36;97245.44;;;28.24;52.47
20350;BME280;10332;50.208;18.988;2023-07-02T10:10:04;97240.22;;;28.06;52.31
20350;BME280;10332;50.208;18.988;2023-07-02T10:12:33;97229.91;;;28.83;51.62
20350;BME280;10332;50.208;18.988;2023-07-02T10:15:01;97229.06;;;29.11;51.42
20350;BME280;10332;50.208;18.988;2023-07-02T10:17:35;97232.34;;;29.14;51.23
20350;BME280;10332;50.208;18.988;2023-07-02T10:20:07;97236.56;;;28.24;53.77
20350;BME280;10332;50.208;18.988;2023-07-02T10:22:49;97233.84;;;27.95;54.89
20350;BME280;10332;50.208;18.988;2023-07-02T10:25:33;97239.66;;;27.92;55.57
20350;BME280;10332;50.208;18.988;2023-07-02T10:30:52;97237.34;;;27.37;55.60
20350;BME280;10332;50.208;18.988;2023-07-02T10:33:20;97220.44;;;27.49;55.68
20350;BME280;10332;50.208;18.988;2023-07-02T10:35:49;97222.13;;;28.02;54.62
20350;BME280;10332;50.208;18.988;2023-07-02T10:38:24;97216.72;;;28.25;53.76
20350;BME280;10332;50.208;18.988;2023-07-02T10:40:59;97208.91;;;28.80;53.57
20350;BME280;10332;50.208;18.988;2023-07-02T10:43:31;97206.91;;;29.04;52.83
20350;BME280;10332;50.208;18.988;2023-07-02T10:46:00;97205.19;;;29.32;52.35
20350;BME280;10332;50.208;18.988;2023-07-02T10:48:29;97203.22;;;29.61;51.42
20350;BME280;10332;50.208;18.988;2023-07-02T10:50:57;97196.47;;;28.91;51.92
20350;BME280;10332;50.208;18.988;2023-07-02T10:53:25;97198.31;;;29.75;51.31
20350;BME280;10332;50.208;18.988;2023-07-02T10:55:57;97197.75;;;29.94;50.39
20350;BME280;10332;50.208;18.988;2023-07-02T10:58:26;97197.41;;;29.91;48.46
20350;BME280;10332;50.208;18.988;2023-07-02T11:00:54;97195.78;;;29.90;49.20
20350;BME280;10332;50.208;18.988;2023-07-02T11:03:24;97195.41;;;29.09;49.19
20350;BME280;10332;50.208;18.988;2023-07-02T11:05:53;97204.78;;;29.06;48.64
20350;BME280;10332;50.208;18.988;2023-07-02T11:08:21;97189.06;;;28.98;50.09
20350;BME280;10332;50.208;18.988;2023-07-02T11:10:51;97193.78;;;28.91;49.83
20350;BME280;10332;50.208;18.988;2023-07-02T11:13:30;97188.25;;;28.52;49.65
20350;BME280;10332;50.208;18.988;2023-07-02T11:15:57;97199.50;;;28.49;49.94
20350;BME280;10332;50.208;18.988;2023-07-02T11:18:30;97191.91;;;28.46;50.06
20350;BME280;10332;50.208;18.988;2023-07-02T11:21:10;97184.50;;;28.25;50.78
20350;BME280;10332;50.208;18.988;2023-07-02T11:23:37;97185.00;;;28.50;50.31
20350;BME280;10332;50.208;18.988;2023-07-02T11:26:06;97181.63;;;28.15;51.88
20350;BME280;10332;50.208;18.988;2023-07-02T11:28:33;97184.78;;;28.69;50.89
20350;BME280;10332;50.208;18.988;2023-07-02T11:31:04;97176.16;;;28.67;50.96
20350;BME280;10332;50.208;18.988;2023-07-02T11:33:36;97170.41;;;28.46;51.63
20350;BME280;10332;50.208;18.988;2023-07-02T11:36:05;97177.56;;;28.86;50.89
20350;BME280;10332;50.208;18.988;2023-07-02T11:38:35;97170.63;;;28.16;52.54
20350;BME280;10332;50.208;18.988;2023-07-02T11:41:04;97161.03;;;27.92;53.52
20350;BME280;10332;50.208;18.988;2023-07-02T11:43:32;97159.47;;;28.08;53.71
20350;BME280;10332;50.208;18.988;2023-07-02T11:46:00;97152.56;;;27.60;52.68
20350;BME280;10332;50.208;18.988;2023-07-02T11:48:27;97148.38;;;27.40;54.35
20350;BME280;10332;50.208;18.988;2023-07-02T11:50:55;97146.97;;;26.79;56.38
20350;BME280;10332;50.208;18.988;2023-07-02T11:53:22;97154.88;;;26.74;55.00
20350;BME280;10332;50.208;18.988;2023-07-02T11:55:50;97157.28;;;26.64;55.79
20350;BME280;10332;50.208;18.988;2023-07-02T11:58:18;97163.31;;;26.59;55.58
20350;BME280;10332;50.208;18.988;2023-07-02T12:00:46;97157.31;;;26.34;56.49
20350;BME280;10332;50.208;18.988;2023-07-02T12:03:13;97172.31;;;26.65;56.51
20350;BME280;10332;50.208;18.988;2023-07-02T12:05:41;97164.66;;;26.80;56.78
20350;BME280;10332;50.208;18.988;2023-07-02T12:08:08;97174.59;;;27.03;57.08
20350;BME280;10332;50.208;18.988;2023-07-02T12:10:36;97164.63;;;26.69;57.67
20350;BME280;10332;50.208;18.988;2023-07-02T12:13:05;97161.59;;;27.07;56.94
20350;BME280;10332;50.208;18.988;2023-07-02T12:15:33;97170.84;;;26.93;56.90
20350;BME280;10332;50.208;18.988;2023-07-02T12:18:01;97177.72;;;26.88;56.36
20350;BME280;10332;50.208;18.988;2023-07-02T12:20:29;97176.25;;;27.04;56.00
20350;BME280;10332;50.208;18.988;2023-07-02T12:22:57;97175.78;;;27.07;55.79
20350;BME280;10332;50.208;18.988;2023-07-02T12:25:27;97225.16;;;27.00;56.23
20350;BME280;10332;50.208;18.988;2023-07-02T12:27:54;97252.88;;;26.64;57.38
20350;BME280;10332;50.208;18.988;2023-07-02T12:30:22;97248.31;;;26.34;57.69
20350;BME280;10332;50.208;18.988;2023-07-02T12:32:50;97248.25;;;25.86;59.06
20350;BME280;10332;50.208;18.988;2023-07-02T12:35:18;97248.50;;;25.59;59.73
20350;BME280;10332;50.208;18.988;2023-07-02T12:37:47;97261.25;;;24.76;62.46
20350;BME280;10332;50.208;18.988;2023-07-02T12:40:16;97259.56;;;24.50;64.16
20350;BME280;10332;50.208;18.988;2023-07-02T12:42:45;97263.47;;;24.47;64.32
20350;BME280;10332;50.208;18.988;2023-07-02T12:45:14;97270.31;;;24.37;64.97
20350;BME280;10332;50.208;18.988;2023-07-02T12:47:45;97283.69;;;24.17;64.69
20350;BME280;10332;50.208;18.988;2023-07-02T12:50:13;97281.50;;;23.94;65.05
20350;BME280;10332;50.208;18.988;2023-07-02T12:52:40;97277.09;;;24.32;64.50
20350;BME280;10332;50.208;18.988;2023-07-02T12:55:09;97277.06;;;24.39;63.93
20350;BME280;10332;50.208;18.988;2023-07-02T12:57:36;97278.81;;;24.58;63.61
20350;BME280;10332;50.208;18.988;2023-07-02T13:00:05;97270.31;;;24.75;63.01
20350;BME280;10332;50.208;18.988;2023-07-02T13:02:34;97271.97;;;24.69;63.86